createdAt,value
2018-01-13T00:00:38.807Z,4.00
2018-01-13T00:03:49.058Z,4.10
2018-01-13T00:06:59.023Z,4.10
2018-01-13T00:10:08.937Z,3.90
2018-01-13T00:13:18.976Z,4.00
2018-01-13T00:16:29.005Z,3.90
2018-01-13T00:19:40.439Z,3.80
2018-01-13T00:22:50.863Z,3.80
2018-01-13T00:26:02.898Z,3.80
2018-01-13T00:29:13.946Z,3.70
2018-01-13T00:32:24.163Z,3.70
2018-01-13T00:35:34.613Z,3.70
2018-01-13T00:38:44.925Z,3.60
2018-01-13T00:41:56.053Z,3.70
2018-01-13T00:45:07.455Z,3.70
2018-01-13T00:48:18.483Z,3.60
2018-01-13T00:51:29.102Z,3.60
2018-01-13T00:54:39.584Z,3.60
2018-01-13T00:57:49.743Z,3.60
2018-01-13T01:00:59.778Z,3.60
2018-01-13T01:04:10.261Z,3.70
2018-01-13T01:07:20.967Z,3.70
2018-01-13T01:10:31.000Z,3.70
2018-01-13T01:13:42.030Z,3.80
2018-01-13T01:16:52.020Z,3.70
2018-01-13T01:20:01.918Z,3.80
2018-01-13T01:23:11.933Z,3.80
2018-01-13T01:26:22.062Z,3.80
2018-01-13T01:29:33.876Z,3.80
2018-01-13T01:32:44.097Z,3.70
2018-01-13T01:35:54.738Z,3.70
2018-01-13T01:39:04.274Z,3.70
2018-01-13T01:42:14.393Z,3.70
2018-01-13T01:45:24.836Z,3.70
2018-01-13T01:48:35.159Z,3.70
2018-01-13T01:51:46.082Z,3.80
2018-01-13T01:54:56.358Z,3.70
2018-01-13T01:58:06.276Z,3.70
2018-01-13T02:01:16.518Z,3.70
2018-01-13T02:04:26.962Z,3.70
2018-01-13T02:07:36.686Z,3.60
2018-01-13T02:10:46.802Z,3.70
2018-01-13T02:13:56.617Z,3.70
2018-01-13T02:17:07.459Z,3.60
2018-01-13T02:20:18.678Z,3.60
2018-01-13T02:23:29.550Z,3.40
2018-01-13T02:26:41.109Z,3.30
2018-01-13T02:29:52.124Z,3.20
2018-01-13T02:33:02.594Z,3.20
2018-01-13T02:36:12.638Z,3.30
2018-01-13T02:39:22.817Z,3.30
2018-01-13T02:42:32.902Z,3.40
2018-01-13T02:45:43.069Z,3.40
2018-01-13T02:48:53.720Z,3.40
2018-01-13T02:52:03.699Z,3.40
2018-01-13T02:55:13.904Z,3.30
2018-01-13T02:58:23.719Z,3.30
2018-01-13T03:01:33.825Z,3.30
2018-01-13T03:04:44.061Z,3.30
2018-01-13T03:07:54.687Z,3.20
2018-01-13T03:11:05.934Z,3.20
2018-01-13T03:14:15.722Z,3.20
2018-01-13T03:17:26.987Z,3.20
2018-01-13T03:20:36.797Z,3.20
2018-01-13T03:23:46.586Z,3.30
2018-01-13T03:26:57.193Z,3.20
2018-01-13T03:30:07.894Z,3.20
2018-01-13T03:33:17.814Z,3.20
2018-01-13T03:36:27.884Z,3.20
2018-01-13T03:39:38.817Z,3.10
2018-01-13T03:42:49.638Z,3.10
2018-01-13T03:46:00.784Z,3.10
2018-01-13T03:49:11.237Z,3.10
2018-01-13T03:52:21.098Z,3.10
2018-01-13T03:55:32.082Z,3.10
2018-01-13T03:58:43.030Z,3.10
2018-01-13T04:01:53.293Z,3.00
2018-01-13T04:05:03.948Z,3.10
2018-01-13T04:08:14.665Z,3.10
2018-01-13T04:11:25.052Z,3.10
2018-01-13T04:14:35.602Z,3.10
2018-01-13T04:17:46.207Z,3.10
2018-01-13T04:20:55.994Z,3.20
2018-01-13T04:24:05.882Z,3.10
2018-01-13T04:27:16.588Z,3.20
2018-01-13T04:30:27.059Z,3.20
2018-01-13T04:33:37.991Z,3.10
2018-01-13T04:36:48.671Z,3.10
2018-01-13T04:39:59.905Z,3.10
2018-01-13T04:43:09.730Z,3.10
2018-01-13T04:46:20.015Z,3.10
2018-01-13T04:49:30.334Z,3.10
2018-01-13T04:52:40.465Z,3.00
2018-01-13T04:55:50.380Z,3.10
2018-01-13T04:59:00.231Z,3.00
2018-01-13T05:02:10.062Z,3.10
2018-01-13T05:05:20.703Z,3.10
2018-01-13T05:08:31.028Z,3.00
2018-01-13T05:11:41.098Z,3.00
2018-01-13T05:14:51.037Z,3.10
2018-01-13T05:18:01.246Z,3.10
2018-01-13T05:21:11.991Z,3.20
2018-01-13T05:24:22.459Z,3.20
2018-01-13T05:27:32.491Z,3.20
2018-01-13T05:30:42.606Z,3.20
2018-01-13T05:33:52.537Z,3.30
2018-01-13T05:37:02.580Z,3.30
2018-01-13T05:40:13.138Z,3.20
2018-01-13T05:43:24.369Z,3.30
2018-01-13T05:46:34.610Z,3.20
2018-01-13T05:49:44.650Z,3.30
2018-01-13T05:52:55.418Z,3.20
2018-01-13T05:56:05.426Z,3.20
2018-01-13T05:59:15.608Z,3.30
2018-01-13T06:02:25.634Z,3.20
2018-01-13T06:05:36.942Z,3.20
2018-01-13T06:08:47.504Z,3.20
2018-01-13T06:11:58.272Z,3.20
2018-01-13T06:15:08.448Z,3.20
2018-01-13T06:18:18.137Z,3.20
2018-01-13T06:21:28.850Z,3.10
2018-01-13T06:24:39.373Z,3.10
2018-01-13T06:27:49.662Z,3.20
2018-01-13T06:31:00.162Z,3.20
2018-01-13T06:34:10.535Z,3.20
2018-01-13T06:37:20.845Z,3.20
2018-01-13T06:40:31.612Z,3.20
2018-01-13T06:43:42.188Z,3.10
2018-01-13T06:46:53.469Z,3.20
2018-01-13T06:50:03.888Z,3.20
2018-01-13T06:53:14.115Z,3.20
2018-01-13T06:56:24.074Z,3.10
2018-01-13T06:59:34.038Z,3.10
2018-01-13T07:02:45.032Z,3.10
2018-01-13T07:05:55.569Z,3.10
2018-01-13T07:09:04.825Z,3.10
2018-01-13T07:12:15.446Z,3.20
2018-01-13T07:15:25.496Z,3.20
2018-01-13T07:18:35.539Z,3.20
2018-01-13T07:21:45.658Z,3.20
2018-01-13T07:24:56.020Z,3.20
2018-01-13T07:28:05.951Z,3.20
2018-01-13T07:31:16.373Z,3.20
2018-01-13T07:34:26.907Z,3.10
2018-01-13T07:37:37.287Z,3.10
2018-01-13T07:40:47.980Z,3.20
2018-01-13T07:43:59.450Z,3.10
2018-01-13T07:47:09.876Z,3.20
2018-01-13T07:50:20.826Z,3.20
2018-01-13T07:53:31.163Z,3.10
2018-01-13T07:56:41.176Z,3.10
2018-01-13T07:59:50.899Z,3.20
2018-01-13T08:03:01.263Z,3.20
2018-01-13T08:06:11.150Z,3.20
2018-01-13T08:09:21.174Z,3.10
2018-01-13T08:12:31.984Z,3.10
2018-01-13T08:15:42.783Z,3.10
2018-01-13T08:18:53.238Z,3.10
2018-01-13T08:22:03.453Z,3.10
2018-01-13T08:25:13.640Z,3.10
2018-01-13T08:28:23.490Z,3.10
2018-01-13T08:31:33.523Z,3.00
2018-01-13T08:34:43.875Z,3.00
2018-01-13T08:37:53.798Z,3.00
2018-01-13T08:41:04.738Z,3.00
2018-01-13T08:44:15.101Z,3.00
2018-01-13T08:47:25.127Z,3.00
2018-01-13T08:50:36.200Z,3.00
2018-01-13T08:53:46.378Z,3.00
2018-01-13T08:56:57.507Z,3.00
2018-01-13T09:00:08.681Z,3.00
2018-01-13T09:03:19.685Z,3.00
2018-01-13T09:06:30.314Z,3.00
2018-01-13T09:09:40.828Z,3.00
2018-01-13T09:12:52.014Z,3.00
2018-01-13T09:16:02.470Z,3.00
2018-01-13T09:19:12.441Z,3.10
2018-01-13T09:22:22.895Z,3.10
2018-01-13T09:25:32.898Z,3.10
2018-01-13T09:28:44.087Z,3.00
2018-01-13T09:31:55.355Z,3.00
2018-01-13T09:35:06.006Z,3.00
2018-01-13T09:38:15.863Z,3.00
2018-01-13T09:41:25.861Z,3.00
2018-01-13T09:44:35.718Z,2.90
2018-01-13T09:47:46.535Z,2.90
2018-01-13T09:50:56.609Z,2.90
2018-01-13T09:54:06.781Z,2.80
2018-01-13T09:57:16.649Z,2.80
2018-01-13T10:00:26.862Z,2.70
2018-01-13T10:03:37.157Z,2.80
2018-01-13T10:06:47.965Z,2.70
2018-01-13T10:09:58.583Z,2.70
2018-01-13T10:13:08.944Z,2.70
2018-01-13T10:16:19.492Z,2.70
2018-01-13T10:19:29.732Z,2.70
2018-01-13T10:22:39.909Z,2.70
2018-01-13T10:25:51.108Z,2.80
2018-01-13T10:29:01.601Z,2.80
2018-01-13T10:32:11.464Z,2.80
2018-01-13T10:35:21.255Z,2.90
2018-01-13T10:38:31.991Z,2.90
2018-01-13T10:41:42.088Z,2.90
2018-01-13T10:44:51.997Z,2.90
2018-01-13T10:48:02.648Z,2.90
2018-01-13T10:51:12.819Z,2.90
2018-01-13T10:54:25.181Z,2.90
2018-01-13T10:57:35.690Z,2.90
2018-01-13T11:00:46.690Z,2.90
2018-01-13T11:03:58.202Z,2.90
2018-01-13T11:07:09.308Z,2.90
2018-01-13T11:10:20.269Z,2.90
2018-01-13T11:13:30.765Z,2.80
2018-01-13T11:16:41.070Z,2.80
2018-01-13T11:19:51.629Z,2.80
2018-01-13T11:23:02.290Z,2.90
2018-01-13T11:26:12.531Z,2.90
2018-01-13T11:29:22.249Z,2.90
2018-01-13T11:32:32.474Z,2.90
2018-01-13T11:35:43.749Z,2.90
2018-01-13T11:38:54.489Z,2.90
2018-01-13T11:42:04.428Z,3.00
2018-01-13T11:45:15.140Z,3.00
2018-01-13T11:48:25.306Z,2.90
2018-01-13T11:51:36.213Z,3.00
2018-01-13T11:54:47.474Z,3.00
2018-01-13T11:57:57.951Z,3.00
2018-01-13T12:01:08.124Z,3.00
2018-01-13T12:04:18.942Z,2.90
2018-01-13T12:07:29.058Z,2.90
2018-01-13T12:10:39.207Z,2.80
2018-01-13T12:13:50.067Z,2.70
2018-01-13T12:17:00.141Z,2.70
2018-01-13T12:20:10.331Z,2.70
2018-01-13T12:23:20.423Z,2.70
2018-01-13T12:26:30.822Z,2.70
2018-01-13T12:29:40.923Z,2.60
2018-01-13T12:32:51.505Z,2.60
2018-01-13T12:36:01.436Z,2.60
2018-01-13T12:39:11.809Z,2.60
2018-01-13T12:42:21.865Z,2.60
2018-01-13T12:45:32.472Z,2.60
2018-01-13T12:48:42.537Z,2.50
2018-01-13T12:51:52.409Z,2.50
2018-01-13T12:55:02.293Z,2.50
2018-01-13T12:58:13.055Z,2.40
2018-01-13T13:01:22.888Z,2.30
2018-01-13T13:04:32.585Z,2.30
2018-01-13T13:07:43.176Z,2.40
2018-01-13T13:10:53.759Z,2.40
2018-01-13T13:14:03.853Z,2.40
2018-01-13T13:17:15.199Z,2.30
2018-01-13T13:20:24.987Z,2.30
2018-01-13T13:23:35.883Z,2.20
2018-01-13T13:26:46.121Z,2.20
2018-01-13T13:29:56.098Z,2.20
2018-01-13T13:33:06.145Z,2.10
2018-01-13T13:36:16.555Z,2.00
2018-01-13T13:39:26.911Z,1.90
2018-01-13T13:42:38.037Z,1.90
2018-01-13T13:45:48.387Z,1.80
2018-01-13T13:48:59.866Z,1.70
2018-01-13T13:52:10.418Z,1.70
2018-01-13T13:55:21.958Z,1.70
2018-01-13T13:58:32.022Z,1.70
2018-01-13T14:01:42.661Z,1.70
2018-01-13T14:04:53.095Z,1.70
2018-01-13T14:08:03.825Z,1.70
2018-01-13T14:11:13.745Z,1.70
2018-01-13T14:14:24.538Z,1.60
2018-01-13T14:17:34.796Z,1.60
2018-01-13T14:20:46.023Z,1.50
2018-01-13T14:23:56.913Z,1.50
2018-01-13T14:27:08.407Z,1.50
2018-01-13T14:30:18.646Z,1.40
2018-01-13T14:33:29.584Z,1.40
2018-01-13T14:36:40.089Z,1.40
2018-01-13T14:39:50.544Z,1.40
2018-01-13T14:43:00.500Z,1.40
2018-01-13T14:46:11.010Z,1.40
2018-01-13T14:49:21.480Z,1.30
2018-01-13T14:52:31.619Z,1.40
2018-01-13T14:55:42.636Z,1.40
2018-01-13T14:58:53.153Z,1.30
2018-01-13T15:02:03.023Z,1.30
2018-01-13T15:05:13.368Z,1.30
2018-01-13T15:08:23.787Z,1.30
2018-01-13T15:11:34.261Z,1.30
2018-01-13T15:14:44.501Z,1.20
2018-01-13T15:17:55.264Z,1.10
2018-01-13T15:21:05.657Z,1.20
2018-01-13T15:24:16.010Z,1.20
2018-01-13T15:27:25.755Z,1.20
2018-01-13T15:30:36.208Z,1.10
2018-01-13T15:36:57.603Z,1.00
2018-01-13T15:40:07.750Z,1.00
2018-01-13T15:43:18.824Z,1.00
2018-01-13T15:46:29.125Z,1.00
2018-01-13T15:49:39.786Z,1.00
2018-01-13T15:52:50.180Z,1.10
2018-01-13T15:56:08.398Z,1.10
2018-01-13T15:59:18.200Z,1.00
2018-01-13T16:02:28.664Z,0.90
2018-01-13T16:05:39.429Z,0.90
2018-01-13T16:08:49.911Z,0.90
2018-01-13T16:12:00.330Z,0.90
2018-01-13T16:15:11.918Z,0.80
2018-01-13T16:18:22.086Z,0.80
2018-01-13T16:21:32.423Z,0.60
2018-01-13T16:24:42.202Z,0.50
2018-01-13T16:27:52.897Z,0.50
2018-01-13T16:31:03.258Z,0.50
2018-01-13T16:34:13.994Z,0.50
2018-01-13T16:37:23.868Z,0.60
2018-01-13T16:40:33.821Z,0.60
2018-01-13T16:43:43.785Z,0.60
2018-01-13T16:46:55.005Z,0.40
2018-01-13T16:50:05.820Z,0.40
2018-01-13T16:53:16.087Z,0.40
2018-01-13T16:56:27.120Z,0.40
2018-01-13T16:59:37.351Z,0.30
2018-01-13T17:02:47.583Z,0.40
2018-01-13T17:05:57.408Z,0.30
2018-01-13T17:09:08.526Z,0.20
2018-01-13T17:12:18.890Z,0.20
2018-01-13T17:15:28.934Z,0.10
2018-01-13T17:18:40.251Z,0.10
2018-01-13T17:21:50.149Z,0.10
2018-01-13T17:25:00.148Z,0.10
2018-01-13T17:28:10.577Z,0.10
2018-01-13T17:31:20.864Z,0.00
2018-01-13T17:34:31.090Z,0.00
2018-01-13T17:37:40.875Z,0.00
2018-01-13T17:40:51.714Z,-0.10
2018-01-13T17:44:01.732Z,-0.10
2018-01-13T17:47:13.083Z,-0.20
2018-01-13T17:50:24.002Z,-0.20
2018-01-13T17:53:34.314Z,-0.20
2018-01-13T17:56:44.341Z,-0.30
2018-01-13T17:59:54.397Z,-0.30
2018-01-13T18:03:05.083Z,-0.40
2018-01-13T18:06:14.937Z,-0.40
2018-01-13T18:09:24.966Z,-0.40
2018-01-13T18:12:34.940Z,-0.50
2018-01-13T18:15:45.566Z,-0.40
2018-01-13T18:18:56.489Z,-0.40
2018-01-13T18:22:07.363Z,-0.50
2018-01-13T18:25:17.717Z,-0.60
2018-01-13T18:28:27.988Z,-0.50
2018-01-13T18:31:38.393Z,-0.60
2018-01-13T18:34:48.354Z,-0.50
2018-01-13T18:38:00.086Z,-0.60
2018-01-13T18:41:11.434Z,-0.70
2018-01-13T18:44:21.683Z,-0.70
2018-01-13T18:47:31.522Z,-0.80
2018-01-13T18:50:41.524Z,-0.70
2018-01-13T18:53:52.001Z,-0.80
2018-01-13T18:57:02.323Z,-0.90
2018-01-13T19:00:13.238Z,-0.90
2018-01-13T19:03:23.979Z,-0.90
2018-01-13T19:06:33.813Z,-0.90
2018-01-13T19:09:44.186Z,-0.90
2018-01-13T19:12:54.065Z,-0.90
2018-01-13T19:16:04.317Z,-1.00
2018-01-13T19:19:14.216Z,-1.00
2018-01-13T19:22:24.434Z,-1.00
2018-01-13T19:25:35.561Z,-0.90
2018-01-13T19:28:46.066Z,-1.00
2018-01-13T19:31:57.168Z,-1.00
2018-01-13T19:35:08.592Z,-1.00
2018-01-13T19:38:18.939Z,-1.10
2018-01-13T19:41:28.905Z,-1.10
2018-01-13T19:44:39.320Z,-1.00
2018-01-13T19:47:49.434Z,-1.10
2018-01-13T19:51:00.214Z,-1.10
2018-01-13T19:54:10.322Z,-1.10
2018-01-13T19:57:21.101Z,-1.10
2018-01-13T20:00:31.973Z,-1.10
2018-01-13T20:03:42.914Z,-1.10
2018-01-13T20:06:53.734Z,-1.10
2018-01-13T20:10:04.050Z,-1.10
2018-01-13T20:13:13.952Z,-1.20
2018-01-13T20:16:25.013Z,-1.10
2018-01-13T20:19:35.456Z,-1.10
2018-01-13T20:22:45.721Z,-1.10
2018-01-13T20:25:55.637Z,-1.10
2018-01-13T20:29:06.311Z,-1.10
2018-01-13T20:32:16.347Z,-1.10
2018-01-13T20:35:30.876Z,-1.10
2018-01-13T20:38:41.160Z,-1.10
2018-01-13T20:41:51.279Z,-1.10
2018-01-13T20:45:01.586Z,-1.10
2018-01-13T20:48:11.581Z,-1.10
2018-01-13T20:51:21.991Z,-1.10
2018-01-13T20:54:32.313Z,-1.10
2018-01-13T20:57:43.011Z,-1.10
2018-01-13T21:00:54.592Z,-1.10
2018-01-13T21:04:05.440Z,-1.10
2018-01-13T21:07:16.796Z,-1.20
2018-01-13T21:10:27.601Z,-1.20
2018-01-13T21:13:37.525Z,-1.10
2018-01-13T21:16:47.420Z,-1.10
2018-01-13T21:19:57.693Z,-1.10
2018-01-13T21:23:09.754Z,-1.10
2018-01-13T21:26:19.607Z,-1.20
2018-01-13T21:29:29.995Z,-1.10
2018-01-13T21:32:40.603Z,-1.10
2018-01-13T21:35:50.455Z,-1.10
2018-01-13T21:39:00.568Z,-1.10
2018-01-13T21:42:11.064Z,-1.10
2018-01-13T21:45:21.673Z,-1.20
2018-01-13T21:48:32.252Z,-1.20
2018-01-13T21:51:42.742Z,-1.10
2018-01-13T21:54:52.518Z,-1.20
2018-01-13T21:58:02.661Z,-1.20
2018-01-13T22:01:13.051Z,-1.20
2018-01-13T22:04:23.263Z,-1.20
2018-01-13T22:07:33.523Z,-1.20
2018-01-13T22:10:44.016Z,-1.30
2018-01-13T22:13:54.148Z,-1.30
2018-01-13T22:17:04.490Z,-1.30
2018-01-13T22:20:14.456Z,-1.30
2018-01-13T22:23:25.160Z,-1.30
2018-01-13T22:26:35.391Z,-1.30
2018-01-13T22:29:45.317Z,-1.30
2018-01-13T22:32:55.460Z,-1.30
2018-01-13T22:36:06.042Z,-1.30
2018-01-13T22:39:15.877Z,-1.30
2018-01-13T22:42:26.313Z,-1.30
2018-01-13T22:45:37.363Z,-1.30
2018-01-13T22:48:47.855Z,-1.30
2018-01-13T22:51:58.194Z,-1.30
2018-01-13T22:55:08.355Z,-1.30
2018-01-13T22:58:19.148Z,-1.30
2018-01-13T23:01:29.243Z,-1.20
2018-01-13T23:04:39.075Z,-1.30
2018-01-13T23:07:49.327Z,-1.30
2018-01-13T23:10:59.353Z,-1.30
2018-01-13T23:14:09.367Z,-1.40
2018-01-13T23:17:19.522Z,-1.40
2018-01-13T23:20:29.574Z,-1.40
2018-01-13T23:23:39.590Z,-1.50
2018-01-13T23:26:50.476Z,-1.50
2018-01-13T23:30:01.216Z,-1.50
2018-01-13T23:33:11.726Z,-1.50
2018-01-13T23:36:21.598Z,-1.50
2018-01-13T23:39:32.043Z,-1.50
2018-01-13T23:42:42.608Z,-1.50
2018-01-13T23:45:52.894Z,-1.50
2018-01-13T23:49:03.340Z,-1.50
2018-01-13T23:52:14.102Z,-1.50
2018-01-13T23:55:25.539Z,-1.50
2018-01-13T23:58:35.937Z,-1.50
